sensor_id;sensor_type;location;lat;lon;timestamp;pressure;altitude;pressure_sealevel;temperature;humidity
39405;BME280;25121;51.090;17.038;2023-04-24T00:00:31;99028.69;;;15.37;62.42
39405;BME280;25121;51.090;17.038;2023-04-24T00:01:56;99025.97;;;15.37;62.52
39405;BME280;25121;51.090;17.038;2023-04-24T00:03:19;99021.03;;;15.34;62.59
39405;BME280;25121;51.090;17.038;2023-04-24T00:04:43;99028.25;;;15.40;62.60
39405;BME280;25121;51.090;17.038;2023-04-24T00:06:06;99028.25;;;15.40;62.62
39405;BME280;25121;51.090;17.038;2023-04-24T00:07:31;99028.00;;;15.42;62.75
39405;BME280;25121;51.090;17.038;2023-04-24T00:08:53;99027.19;;;15.41;62.76
39405;BME280;25121;51.090;17.038;2023-04-24T00:10:15;99017.16;;;15.42;62.61
39405;BME280;25121;51.090;17.038;2023-04-24T00:11:39;99020.94;;;15.41;62.51
39405;BME280;25121;51.090;17.038;2023-04-24T00:13:02;99018.09;;;15.36;62.58
39405;BME280;25121;51.090;17.038;2023-04-24T00:14:24;99014.44;;;15.42;62.61
39405;BME280;25121;51.090;17.038;2023-04-24T00:15:46;99019.06;;;15.41;62.72
39405;BME280;25121;51.090;17.038;2023-04-24T00:17:07;99017.03;;;15.37;62.82
39405;BME280;25121;51.090;17.038;2023-04-24T00:18:29;99020.13;;;15.40;62.83
39405;BME280;25121;51.090;17.038;2023-04-24T00:19:51;99006.00;;;15.38;62.89
39405;BME280;25121;51.090;17.038;2023-04-24T00:21:19;99005.13;;;15.38;62.98
39405;BME280;25121;51.090;17.038;2023-04-24T00:22:43;99006.22;;;15.37;63.05
39405;BME280;25121;51.090;17.038;2023-04-24T00:24:06;98999.03;;;15.31;63.00
39405;BME280;25121;51.090;17.038;2023-04-24T00:25:32;99008.09;;;15.36;62.80
39405;BME280;25121;51.090;17.038;2023-04-24T00:26:53;99009.13;;;15.35;62.97
39405;BME280;25121;51.090;17.038;2023-04-24T00:28:15;99001.75;;;15.31;63.15
39405;BME280;25121;51.090;17.038;2023-04-24T00:29:36;99003.97;;;15.34;63.16
39405;BME280;25121;51.090;17.038;2023-04-24T00:30:59;98995.03;;;15.33;63.15
39405;BME280;25121;51.090;17.038;2023-04-24T00:32:21;98998.19;;;15.30;63.47
39405;BME280;25121;51.090;17.038;2023-04-24T00:33:43;98999.59;;;15.33;63.60
39405;BME280;25121;51.090;17.038;2023-04-24T00:35:06;98995.03;;;15.33;63.39
39405;BME280;25121;51.090;17.038;2023-04-24T00:36:28;98998.78;;;15.32;63.47
39405;BME280;25121;51.090;17.038;2023-04-24T00:37:53;98991.34;;;15.27;63.41
39405;BME280;25121;51.090;17.038;2023-04-24T00:39:14;98993.25;;;15.27;63.42
39405;BME280;25121;51.090;17.038;2023-04-24T00:40:36;98992.91;;;15.23;63.47
39405;BME280;25121;51.090;17.038;2023-04-24T00:41:58;98988.66;;;15.27;63.56
39405;BME280;25121;51.090;17.038;2023-04-24T00:43:20;98989.50;;;15.28;63.37
39405;BME280;25121;51.090;17.038;2023-04-24T00:44:44;98985.00;;;15.22;63.47
39405;BME280;25121;51.090;17.038;2023-04-24T00:46:06;98989.13;;;15.24;63.51
39405;BME280;25121;51.090;17.038;2023-04-24T00:47:28;98988.31;;;15.24;63.41
39405;BME280;25121;51.090;17.038;2023-04-24T00:48:52;98982.50;;;15.20;63.74
39405;BME280;25121;51.090;17.038;2023-04-24T00:50:15;98992.09;;;15.23;63.96
39405;BME280;25121;51.090;17.038;2023-04-24T00:51:36;98979.81;;;15.20;63.68
39405;BME280;25121;51.090;17.038;2023-04-24T00:53:08;98987.09;;;15.20;63.69
39405;BME280;25121;51.090;17.038;2023-04-24T00:54:30;98988.19;;;15.19;63.79
39405;BME280;25121;51.090;17.038;2023-04-24T00:55:52;98982.16;;;15.17;64.02
39405;BME280;25121;51.090;17.038;2023-04-24T00:57:14;98988.66;;;15.16;64.28
39405;BME280;25121;51.090;17.038;2023-04-24T00:58:36;98985.34;;;15.14;64.09
39405;BME280;25121;51.090;17.038;2023-04-24T00:59:59;98980.75;;;15.14;63.95
39405;BME280;25121;51.090;17.038;2023-04-24T01:01:21;98975.22;;;15.09;64.22
39405;BME280;25121;51.090;17.038;2023-04-24T01:02:44;98971.91;;;15.07;64.22
39405;BME280;25121;51.090;17.038;2023-04-24T01:04:07;98979.22;;;15.06;64.37
39405;BME280;25121;51.090;17.038;2023-04-24T01:05:31;98980.28;;;15.05;64.61
39405;BME280;25121;51.090;17.038;2023-04-24T01:06:54;98970.97;;;15.01;64.57
39405;BME280;25121;51.090;17.038;2023-04-24T01:08:19;98979.22;;;15.06;64.85
39405;BME280;25121;51.090;17.038;2023-04-24T01:09:42;98972.59;;;15.02;64.60
39405;BME280;25121;51.090;17.038;2023-04-24T01:11:04;98979.22;;;15.06;64.52
39405;BME280;25121;51.090;17.038;2023-04-24T01:12:27;98971.31;;;15.05;64.51
39405;BME280;25121;51.090;17.038;2023-04-24T01:13:48;98981.91;;;15.06;64.54
39405;BME280;25121;51.090;17.038;2023-04-24T01:15:10;98974.00;;;15.05;64.55
39405;BME280;25121;51.090;17.038;2023-04-24T01:16:31;98982.97;;;15.05;64.69
39405;BME280;25121;51.090;17.038;2023-04-24T01:17:54;98964.75;;;15.01;64.72
39405;BME280;25121;51.090;17.038;2023-04-24T01:19:18;98976.13;;;15.03;64.72
39405;BME280;25121;51.090;17.038;2023-04-24T01:20:40;98972.59;;;15.02;64.55
39405;BME280;25121;51.090;17.038;2023-04-24T01:22:10;98965.56;;;15.01;64.70
39405;BME280;25121;51.090;17.038;2023-04-24T01:23:32;98959.19;;;14.96;64.60
39405;BME280;25121;51.090;17.038;2023-04-24T01:24:55;98968.72;;;14.98;64.56
39405;BME280;25121;51.090;17.038;2023-04-24T01:26:18;98967.31;;;14.96;64.43
39405;BME280;25121;51.090;17.038;2023-04-24T01:27:40;98969.75;;;14.97;64.69
39405;BME280;25121;51.090;17.038;2023-04-24T01:29:04;98966.47;;;14.95;64.73
39405;BME280;25121;51.090;17.038;2023-04-24T01:30:29;98965.91;;;14.93;64.61
39405;BME280;25121;51.090;17.038;2023-04-24T01:31:52;98965.91;;;14.93;64.66
39405;BME280;25121;51.090;17.038;2023-04-24T01:33:21;98966.13;;;14.92;64.52
39405;BME280;25121;51.090;17.038;2023-04-24T01:34:46;98958.09;;;14.85;64.66
39405;BME280;25121;51.090;17.038;2023-04-24T01:36:09;98972.59;;;14.91;64.60
39405;BME280;25121;51.090;17.038;2023-04-24T01:37:36;98958.69;;;14.87;64.73
39405;BME280;25121;51.090;17.038;2023-04-24T01:38:58;98957.03;;;14.86;64.77
39405;BME280;25121;51.090;17.038;2023-04-24T01:40:21;98965.75;;;14.88;64.68
39405;BME280;25121;51.090;17.038;2023-04-24T01:41:45;98968.47;;;14.88;64.71
39405;BME280;25121;51.090;17.038;2023-04-24T01:43:07;98958.09;;;14.85;64.74
39405;BME280;25121;51.090;17.038;2023-04-24T01:44:32;98957.66;;;14.88;64.66
39405;BME280;25121;51.090;17.038;2023-04-24T01:45:56;98961.38;;;14.87;64.68
39405;BME280;25121;51.090;17.038;2023-04-24T01:47:18;98954.78;;;14.83;64.65
39405;BME280;25121;51.090;17.038;2023-04-24T01:48:41;98962.47;;;14.86;64.83
39405;BME280;25121;51.090;17.038;2023-04-24T01:50:05;98951.84;;;14.84;64.72
39405;BME280;25121;51.090;17.038;2023-04-24T01:51:26;98944.91;;;14.77;64.73
39405;BME280;25121;51.090;17.038;2023-04-24T01:52:51;98949.16;;;14.84;64.65
39405;BME280;25121;51.090;17.038;2023-04-24T01:54:13;98951.03;;;14.84;64.67
39405;BME280;25121;51.090;17.038;2023-04-24T01:55:35;98951.25;;;14.82;64.48
39405;BME280;25121;51.090;17.038;2023-04-24T01:56:59;98951.25;;;14.82;64.56
39405;BME280;25121;51.090;17.038;2023-04-24T01:58:21;98949.63;;;14.81;64.74
39405;BME280;25121;51.090;17.038;2023-04-24T01:59:44;98958.56;;;14.82;64.87
39405;BME280;25121;51.090;17.038;2023-04-24T02:01:06;98957.75;;;14.81;64.77
39405;BME280;25121;51.090;17.038;2023-04-24T02:02:31;98947.13;;;14.80;64.99
39405;BME280;25121;51.090;17.038;2023-04-24T02:03:57;98949.84;;;14.80;64.87
39405;BME280;25121;51.090;17.038;2023-04-24T02:05:18;98948.81;;;14.81;64.74
39405;BME280;25121;51.090;17.038;2023-04-24T02:06:40;98948.81;;;14.81;65.08
39405;BME280;25121;51.090;17.038;2023-04-24T02:08:03;98938.22;;;14.79;65.26
39405;BME280;25121;51.090;17.038;2023-04-24T02:09:30;98942.19;;;14.77;65.36
39405;BME280;25121;51.090;17.038;2023-04-24T02:10:51;98944.69;;;14.78;65.86
39405;BME280;25121;51.090;17.038;2023-04-24T02:12:14;98945.72;;;14.77;66.00
39405;BME280;25121;51.090;17.038;2023-04-24T02:13:38;98938.75;;;14.70;66.43
39405;BME280;25121;51.090;17.038;2023-04-24T02:14:59;98942.28;;;14.70;66.27
39405;BME280;25121;51.090;17.038;2023-04-24T02:16:21;98938.03;;;14.62;66.64
39405;BME280;25121;51.090;17.038;2023-04-24T02:17:43;98948.03;;;14.62;67.20
39405;BME280;25121;51.090;17.038;2023-04-24T02:19:06;98940.25;;;14.54;67.28
39405;BME280;25121;51.090;17.038;2023-04-24T02:20:27;98949.34;;;14.53;67.48
39405;BME280;25121;51.090;17.038;2023-04-24T02:21:49;98939.00;;;14.50;68.02
39405;BME280;25121;51.090;17.038;2023-04-24T02:23:15;98928.75;;;14.40;68.53
39405;BME280;25121;51.090;17.038;2023-04-24T02:24:39;98937.66;;;14.40;68.84
39405;BME280;25121;51.090;17.038;2023-04-24T02:26:01;98923.19;;;14.35;68.77
39405;BME280;25121;51.090;17.038;2023-04-24T02:27:32;98921.19;;;14.30;69.29
39405;BME280;25121;51.090;17.038;2023-04-24T02:29:01;98928.25;;;14.31;69.75
39405;BME280;25121;51.090;17.038;2023-04-24T02:30:23;98928.47;;;14.30;69.88
39405;BME280;25121;51.090;17.038;2023-04-24T02:31:45;98920.22;;;14.25;70.30
39405;BME280;25121;51.090;17.038;2023-04-24T02:33:08;98925.63;;;14.25;70.18
39405;BME280;25121;51.090;17.038;2023-04-24T02:34:30;98919.63;;;14.22;70.41
39405;BME280;25121;51.090;17.038;2023-04-24T02:35:53;98930.66;;;14.21;70.27
39405;BME280;25121;51.090;17.038;2023-04-24T02:37:14;98911.59;;;14.16;70.38
39405;BME280;25121;51.090;17.038;2023-04-24T02:38:38;98909.34;;;14.13;70.42
39405;BME280;25121;51.090;17.038;2023-04-24T02:40:00;98914.53;;;14.14;71.12
39405;BME280;25121;51.090;17.038;2023-04-24T02:41:23;98916.63;;;14.12;71.15
39405;BME280;25121;51.090;17.038;2023-04-24T02:42:45;98915.00;;;14.11;71.15
39405;BME280;25121;51.090;17.038;2023-04-24T02:44:08;98914.16;;;14.11;71.20
39405;BME280;25121;51.090;17.038;2023-04-24T02:45:33;98905.47;;;14.09;71.34
39405;BME280;25121;51.090;17.038;2023-04-24T02:46:55;98910.25;;;14.07;71.77
39405;BME280;25121;51.090;17.038;2023-04-24T02:48:17;98899.69;;;14.05;72.12
39405;BME280;25121;51.090;17.038;2023-04-24T02:49:39;98904.72;;;14.02;72.48
39405;BME280;25121;51.090;17.038;2023-04-24T02:51:01;98906.13;;;14.04;72.45
39405;BME280;25121;51.090;17.038;2023-04-24T02:52:24;98911.53;;;14.04;72.46
39405;BME280;25121;51.090;17.038;2023-04-24T02:53:48;98898.72;;;13.99;72.87
39405;BME280;25121;51.090;17.038;2023-04-24T02:55:11;98891.88;;;13.97;73.10
39405;BME280;25121;51.090;17.038;2023-04-24T02:56:51;98881.56;;;13.94;73.20
39405;BME280;25121;51.090;17.038;2023-04-24T02:59:11;98896.22;;;13.98;72.83
39405;BME280;25121;51.090;17.038;2023-04-24T03:00:36;98887.09;;;13.99;73.68
39405;BME280;25121;51.090;17.038;2023-04-24T03:01:57;98897.03;;;13.98;73.61
39405;BME280;25121;51.090;17.038;2023-04-24T03:03:20;98891.06;;;13.96;73.66
39405;BME280;25121;51.090;17.038;2023-04-24T03:04:42;98898.94;;;13.98;74.03
39405;BME280;25121;51.090;17.038;2023-04-24T03:06:05;98894.34;;;13.98;74.02
39405;BME280;25121;51.090;17.038;2023-04-24T03:07:26;98893.53;;;13.98;74.14
39405;BME280;25121;51.090;17.038;2023-04-24T03:08:50;98878.38;;;13.97;74.27
39405;BME280;25121;51.090;17.038;2023-04-24T03:10:13;98881.69;;;13.99;74.54
39405;BME280;25121;51.090;17.038;2023-04-24T03:11:35;98873.44;;;13.94;73.99
39405;BME280;25121;51.090;17.038;2023-04-24T03:12:57;98880.84;;;13.98;73.95
39405;BME280;25121;51.090;17.038;2023-04-24T03:14:19;98882.13;;;13.96;73.42
39405;BME280;25121;51.090;17.038;2023-04-24T03:15:42;98871.56;;;13.94;72.76
39405;BME280;25121;51.090;17.038;2023-04-24T03:17:04;98878.00;;;13.93;72.42
39405;BME280;25121;51.090;17.038;2023-04-24T03:18:25;98885.13;;;13.88;71.87
39405;BME280;25121;51.090;17.038;2023-04-24T03:19:47;98886.19;;;13.87;71.33
39405;BME280;25121;51.090;17.038;2023-04-24T03:21:09;98894.66;;;13.90;71.61
39405;BME280;25121;51.090;17.038;2023-04-24T03:22:31;98904.66;;;13.90;71.95
39405;BME280;25121;51.090;17.038;2023-04-24T03:23:55;98887.63;;;13.89;72.62
39405;BME280;25121;51.090;17.038;2023-04-24T03:25:17;98905.72;;;13.89;72.88
39405;BME280;25121;51.090;17.038;2023-04-24T03:27:06;98894.72;;;13.84;73.08
39405;BME280;25121;51.090;17.038;2023-04-24T03:28:51;98899.09;;;13.85;73.05
39405;BME280;25121;51.090;17.038;2023-04-24T03:30:14;98909.44;;;13.88;73.33
39405;BME280;25121;51.090;17.038;2023-04-24T03:31:44;98903.44;;;13.86;73.34
39405;BME280;25121;51.090;17.038;2023-04-24T03:33:07;98914.84;;;13.88;73.52
39405;BME280;25121;51.090;17.038;2023-04-24T03:34:34;98914.03;;;13.87;73.55
39405;BME280;25121;51.090;17.038;2023-04-24T03:35:57;98905.31;;;13.85;73.40
39405;BME280;25121;51.090;17.038;2023-04-24T03:37:22;98912.59;;;13.85;73.38
39405;BME280;25121;51.090;17.038;2023-04-24T03:38:59;98907.25;;;13.78;73.60
39405;BME280;25121;51.090;17.038;2023-04-24T03:40:26;98910.13;;;13.83;74.00
39405;BME280;25121;51.090;17.038;2023-04-24T03:41:51;98908.47;;;13.82;74.15
39405;BME280;25121;51.090;17.038;2023-04-24T03:43:19;98911.38;;;13.81;74.11
39405;BME280;25121;51.090;17.038;2023-04-24T03:44:41;98909.28;;;13.83;74.37
39405;BME280;25121;51.090;17.038;2023-04-24T03:46:05;98901.19;;;13.83;74.30
39405;BME280;25121;51.090;17.038;2023-04-24T03:47:31;98909.50;;;13.81;74.52
39405;BME280;25121;51.090;17.038;2023-04-24T03:48:54;98911.16;;;13.82;74.57
39405;BME280;25121;51.090;17.038;2023-04-24T03:50:22;98912.22;;;13.81;74.94
39405;BME280;25121;51.090;17.038;2023-04-24T03:51:43;98916.56;;;13.82;75.23
39405;BME280;25121;51.090;17.038;2023-04-24T03:53:17;98902.94;;;13.77;74.98
39405;BME280;25121;51.090;17.038;2023-04-24T03:54:39;98910.56;;;13.80;75.13
39405;BME280;25121;51.090;17.038;2023-04-24T03:56:01;98909.50;;;13.81;75.33
39405;BME280;25121;51.090;17.038;2023-04-24T03:57:28;98902.47;;;13.80;75.07
39405;BME280;25121;51.090;17.038;2023-04-24T03:59:04;98913.47;;;13.78;75.02
39405;BME280;25121;51.090;17.038;2023-04-24T04:00:34;98909.59;;;13.74;74.76
39405;BME280;25121;51.090;17.038;2023-04-24T04:02:25;98907.56;;;13.70;74.55
39405;BME280;25121;51.090;17.038;2023-04-24T04:03:48;98912.16;;;13.69;74.57
39405;BME280;25121;51.090;17.038;2023-04-24T04:05:13;98920.00;;;13.71;75.13
39405;BME280;25121;51.090;17.038;2023-04-24T04:06:36;98918.38;;;13.70;74.77
39405;BME280;25121;51.090;17.038;2023-04-24T04:07:58;98914.84;;;13.69;74.88
39405;BME280;25121;51.090;17.038;2023-04-24T04:09:20;98909.44;;;13.69;74.75
39405;BME280;25121;51.090;17.038;2023-04-24T04:10:46;98914.00;;;13.69;74.76
39405;BME280;25121;51.090;17.038;2023-04-24T04:12:09;98917.97;;;13.66;74.90
39405;BME280;25121;51.090;17.038;2023-04-24T04:13:35;98916.94;;;13.67;74.98
39405;BME280;25121;51.090;17.038;2023-04-24T04:14:56;98908.03;;;13.67;74.83
39405;BME280;25121;51.090;17.038;2023-04-24T04:16:19;98925.03;;;13.67;74.90
39405;BME280;25121;51.090;17.038;2023-04-24T04:17:45;98913.84;;;13.64;74.58
39405;BME280;25121;51.090;17.038;2023-04-24T04:19:11;98911.38;;;13.62;74.70
39405;BME280;25121;51.090;17.038;2023-04-24T04:20:34;98913.41;;;13.67;74.94
39405;BME280;25121;51.090;17.038;2023-04-24T04:21:57;98916.34;;;13.65;74.94
39405;BME280;25121;51.090;17.038;2023-04-24T04:23:41;98913.78;;;13.70;74.73
39405;BME280;25121;51.090;17.038;2023-04-24T04:25:21;98918.88;;;13.78;74.81
39405;BME280;25121;51.090;17.038;2023-04-24T04:26:46;98904.34;;;13.79;74.71
39405;BME280;25121;51.090;17.038;2023-04-24T04:28:22;98909.91;;;13.85;74.60
39405;BME280;25121;51.090;17.038;2023-04-24T04:29:45;98909.84;;;13.91;74.30
39405;BME280;25121;51.090;17.038;2023-04-24T04:31:09;98905.59;;;13.95;74.47
39405;BME280;25121;51.090;17.038;2023-04-24T04:32:32;98913.03;;;14.00;74.26
39405;BME280;25121;51.090;17.038;2023-04-24T04:33:56;98907.78;;;14.05;74.05
39405;BME280;25121;51.090;17.038;2023-04-24T04:35:20;98901.47;;;14.11;73.67
39405;BME280;25121;51.090;17.038;2023-04-24T04:36:45;98897.41;;;14.20;74.08
39405;BME280;25121;51.090;17.038;2023-04-24T04:38:32;98908.72;;;14.29;73.80
39405;BME280;25121;51.090;17.038;2023-04-24T04:40:10;98906.16;;;14.34;73.58
39405;BME280;25121;51.090;17.038;2023-04-24T04:41:42;98899.84;;;14.40;73.62
39405;BME280;25121;51.090;17.038;2023-04-24T04:43:09;98898.69;;;14.48;73.37
39405;BME280;25121;51.090;17.038;2023-04-24T04:44:37;98902.41;;;14.54;73.27
39405;BME280;25121;51.090;17.038;2023-04-24T04:46:01;98902.88;;;14.62;72.81
39405;BME280;25121;51.090;17.038;2023-04-24T04:47:42;98903.28;;;14.78;72.50
39405;BME280;25121;51.090;17.038;2023-04-24T04:49:09;98891.41;;;14.79;72.21
39405;BME280;25121;51.090;17.038;2023-04-24T04:50:48;98911.53;;;14.95;72.48
39405;BME280;25121;51.090;17.038;2023-04-24T04:52:14;98902.72;;;14.99;72.19
39405;BME280;25121;51.090;17.038;2023-04-24T04:53:41;98905.94;;;15.08;71.77
39405;BME280;25121;51.090;17.038;2023-04-24T04:55:06;98899.47;;;15.09;71.50
39405;BME280;25121;51.090;17.038;2023-04-24T04:56:51;98903.69;;;15.17;71.01
39405;BME280;25121;51.090;17.038;2023-04-24T04:58:16;98903.81;;;15.22;71.11
39405;BME280;25121;51.090;17.038;2023-04-24T04:59:41;98897.81;;;15.20;70.57
39405;BME280;25121;51.090;17.038;2023-04-24T05:01:16;98905.34;;;15.29;70.12
39405;BME280;25121;51.090;17.038;2023-04-24T05:02:44;98908.44;;;15.33;69.23
39405;BME280;25121;51.090;17.038;2023-04-24T05:04:13;98913.25;;;15.43;68.87
39405;BME280;25121;51.090;17.038;2023-04-24T05:05:40;98912.28;;;15.49;68.60
39405;BME280;25121;51.090;17.038;2023-04-24T05:07:06;98896.75;;;15.44;68.42
39405;BME280;25121;51.090;17.038;2023-04-24T05:08:33;98905.47;;;15.58;68.22
39405;BME280;25121;51.090;17.038;2023-04-24T05:09:56;98892.88;;;15.64;67.59
39405;BME280;25121;51.090;17.038;2023-04-24T05:11:19;98902.66;;;15.77;67.10
39405;BME280;25121;51.090;17.038;2023-04-24T05:13:02;98910.16;;;15.86;66.76
39405;BME280;25121;51.090;17.038;2023-04-24T05:14:35;98904.03;;;15.91;66.81
39405;BME280;25121;51.090;17.038;2023-04-24T05:16:15;98902.84;;;15.99;66.89
39405;BME280;25121;51.090;17.038;2023-04-24T05:17:48;98902.00;;;16.10;66.14
39405;BME280;25121;51.090;17.038;2023-04-24T05:19:10;98895.03;;;16.14;66.17
39405;BME280;25121;51.090;17.038;2023-04-24T05:20:37;98900.91;;;16.23;65.02
39405;BME280;25121;51.090;17.038;2023-04-24T05:22:29;98899.34;;;16.27;65.03
39405;BME280;25121;51.090;17.038;2023-04-24T05:24:04;98907.91;;;16.35;64.30
39405;BME280;25121;51.090;17.038;2023-04-24T05:25:43;98908.25;;;16.39;64.13
39405;BME280;25121;51.090;17.038;2023-04-24T05:27:09;98892.25;;;16.38;63.87
39405;BME280;25121;51.090;17.038;2023-04-24T05:28:59;98914.22;;;16.53;63.82
39405;BME280;25121;51.090;17.038;2023-04-24T05:30:26;98908.06;;;16.57;62.80
39405;BME280;25121;51.090;17.038;2023-04-24T05:31:49;98905.28;;;16.69;62.98
39405;BME280;25121;51.090;17.038;2023-04-24T05:33:22;98913.16;;;16.83;62.92
39405;BME280;25121;51.090;17.038;2023-04-24T05:34:52;98904.59;;;16.91;62.83
39405;BME280;25121;51.090;17.038;2023-04-24T05:36:13;98928.53;;;17.11;62.21
39405;BME280;25121;51.090;17.038;2023-04-24T05:37:41;98929.22;;;17.18;61.94
39405;BME280;25121;51.090;17.038;2023-04-24T05:39:10;98906.69;;;17.17;62.15
39405;BME280;25121;51.090;17.038;2023-04-24T05:40:34;98918.00;;;17.31;61.80
39405;BME280;25121;51.090;17.038;2023-04-24T05:41:57;98910.28;;;17.40;61.17
39405;BME280;25121;51.090;17.038;2023-04-24T05:43:19;98921.78;;;17.47;62.17
39405;BME280;25121;51.090;17.038;2023-04-24T05:44:44;98913.97;;;17.51;61.25
39405;BME280;25121;51.090;17.038;2023-04-24T05:46:08;98911.72;;;17.64;60.45
39405;BME280;25121;51.090;17.038;2023-04-24T05:47:30;98915.56;;;17.69;60.00
39405;BME280;25121;51.090;17.038;2023-04-24T05:48:56;98920.00;;;17.75;59.51
39405;BME280;25121;51.090;17.038;2023-04-24T05:50:24;98912.53;;;17.82;59.19
39405;BME280;25121;51.090;17.038;2023-04-24T05:51:49;98906.59;;;17.85;58.50
39405;BME280;25121;51.090;17.038;2023-04-24T05:53:14;98915.97;;;17.94;58.38
39405;BME280;25121;51.090;17.038;2023-04-24T05:54:39;98911.09;;;17.96;58.59
39405;BME280;25121;51.090;17.038;2023-04-24T05:56:06;98916.09;;;18.04;58.63
39405;BME280;25121;51.090;17.038;2023-04-24T05:57:29;98911.22;;;18.06;58.29
39405;BME280;25121;51.090;17.038;2023-04-24T05:58:55;98920.50;;;18.11;58.35
39405;BME280;25121;51.090;17.038;2023-04-24T06:00:18;98913.09;;;18.06;58.13
39405;BME280;25121;51.090;17.038;2023-04-24T06:01:52;98925.63;;;18.07;58.18
39405;BME280;25121;51.090;17.038;2023-04-24T06:03:17;98932.13;;;18.06;58.36
39405;BME280;25121;51.090;17.038;2023-04-24T06:04:41;98929.41;;;18.06;57.98
39405;BME280;25121;51.090;17.038;2023-04-24T06:06:04;98920.13;;;18.02;57.99
39405;BME280;25121;51.090;17.038;2023-04-24T06:07:28;98933.50;;;18.08;57.40
39405;BME280;25121;51.090;17.038;2023-04-24T06:08:57;98927.91;;;18.15;57.64
39405;BME280;25121;51.090;17.038;2023-04-24T06:10:21;98932.47;;;18.32;57.06
39405;BME280;25121;51.090;17.038;2023-04-24T06:11:48;98929.41;;;18.50;57.16
39405;BME280;25121;51.090;17.038;2023-04-24T06:13:11;98937.00;;;18.75;56.96
39405;BME280;25121;51.090;17.038;2023-04-24T06:14:51;98934.56;;;19.01;56.79
39405;BME280;25121;51.090;17.038;2023-04-24T06:16:45;98930.34;;;19.20;56.15
39405;BME280;25121;51.090;17.038;2023-04-24T06:18:30;98935.59;;;19.27;56.43
39405;BME280;25121;51.090;17.038;2023-04-24T06:19:57;98932.06;;;19.26;56.09
39405;BME280;25121;51.090;17.038;2023-04-24T06:21:38;98931.53;;;19.29;55.15
39405;BME280;25121;51.090;17.038;2023-04-24T06:23:37;98935.59;;;19.27;55.31
39405;BME280;25121;51.090;17.038;2023-04-24T06:25:29;98936.94;;;19.24;55.34
39405;BME280;25121;51.090;17.038;2023-04-24T06:26:57;98932.50;;;19.13;54.99
39405;BME280;25121;51.090;17.038;2023-04-24T06:28:23;98933.22;;;19.03;54.58
39405;BME280;25121;51.090;17.038;2023-04-24T06:29:51;98925.47;;;18.90;55.19
39405;BME280;25121;51.090;17.038;2023-04-24T06:32:54;98929.75;;;18.81;55.78
39405;BME280;25121;51.090;17.038;2023-04-24T06:37:14;98935.97;;;18.54;57.03
39405;BME280;25121;51.090;17.038;2023-04-24T06:38:52;98926.38;;;18.46;57.08
39405;BME280;25121;51.090;17.038;2023-04-24T06:40:14;98930.66;;;18.42;56.36
39405;BME280;25121;51.090;17.038;2023-04-24T06:41:41;98944.28;;;18.42;56.04
39405;BME280;25121;51.090;17.038;2023-04-24T06:43:20;98932.97;;;18.28;56.36
39405;BME280;25121;51.090;17.038;2023-04-24T06:44:49;98939.22;;;18.29;56.84
39405;BME280;25121;51.090;17.038;2023-04-24T06:46:24;98939.72;;;18.26;57.64
39405;BME280;25121;51.090;17.038;2023-04-24T06:47:55;98931.38;;;18.33;56.79
39405;BME280;25121;51.090;17.038;2023-04-24T06:49:22;98937.50;;;18.45;56.44
39405;BME280;25121;51.090;17.038;2023-04-24T06:51:09;98928.50;;;18.66;56.36
39405;BME280;25121;51.090;17.038;2023-04-24T06:53:14;98928.75;;;18.92;56.04
39405;BME280;25121;51.090;17.038;2023-04-24T06:54:44;98931.56;;;19.02;56.26
39405;BME280;25121;51.090;17.038;2023-04-24T06:56:40;98945.19;;;19.02;56.91
39405;BME280;25121;51.090;17.038;2023-04-24T06:58:14;98936.78;;;19.04;56.84
39405;BME280;25121;51.090;17.038;2023-04-24T06:59:41;98923.25;;;19.14;55.69
39405;BME280;25121;51.090;17.038;2023-04-24T07:01:26;98931.84;;;19.33;55.58
39405;BME280;25121;51.090;17.038;2023-04-24T07:02:57;98932.16;;;19.42;56.16
39405;BME280;25121;51.090;17.038;2023-04-24T07:04:28;98933.28;;;19.46;56.02
39405;BME280;25121;51.090;17.038;2023-04-24T07:06:10;98936.63;;;19.53;55.63
39405;BME280;25121;51.090;17.038;2023-04-24T07:20:22;98932.31;;;20.10;55.99
39405;BME280;25121;51.090;17.038;2023-04-24T07:25:27;98941.94;;;20.22;55.09
39405;BME280;25121;51.090;17.038;2023-04-24T07:27:10;98938.66;;;20.20;55.20
39405;BME280;25121;51.090;17.038;2023-04-24T07:28:38;98937.00;;;20.25;55.12
39405;BME280;25121;51.090;17.038;2023-04-24T07:30:05;98943.63;;;20.39;54.28
39405;BME280;25121;51.090;17.038;2023-04-24T07:31:27;98944.78;;;20.53;53.85
39405;BME280;25121;51.090;17.038;2023-04-24T07:32:51;98944.56;;;20.70;53.46
39405;BME280;25121;51.090;17.038;2023-04-24T07:34:18;98946.53;;;20.85;53.76
39405;BME280;25121;51.090;17.038;2023-04-24T07:35:42;98943.00;;;21.05;53.56
39405;BME280;25121;51.090;17.038;2023-04-24T07:37:07;98940.00;;;21.17;53.52
39405;BME280;25121;51.090;17.038;2023-04-24T07:38:35;98940.53;;;21.34;52.65
39405;BME280;25121;51.090;17.038;2023-04-24T07:40:00;98937.00;;;21.39;52.72
39405;BME280;25121;51.090;17.038;2023-04-24T07:41:31;98942.75;;;21.42;52.00
39405;BME280;25121;51.090;17.038;2023-04-24T07:43:00;98941.63;;;21.48;52.41
39405;BME280;25121;51.090;17.038;2023-04-24T07:44:23;98944.66;;;21.52;51.83
39405;BME280;25121;51.090;17.038;2023-04-24T07:45:46;98939.44;;;21.56;52.37
39405;BME280;25121;51.090;17.038;2023-04-24T07:47:09;98946.00;;;21.65;52.34
39405;BME280;25121;51.090;17.038;2023-04-24T07:48:32;98946.81;;;21.65;51.34
39405;BME280;25121;51.090;17.038;2023-04-24T07:49:54;98938.06;;;21.68;51.35
39405;BME280;25121;51.090;17.038;2023-04-24T07:51:23;98943.81;;;21.72;51.18
39405;BME280;25121;51.090;17.038;2023-04-24T07:52:47;98941.31;;;21.76;51.06
39405;BME280;25121;51.090;17.038;2023-04-24T07:54:09;98944.34;;;21.79;50.72